sensor_id;sensor_type;location;lat;lon;timestamp;temperature;humidity
2112;DHT22;1062;52.538;13.400;2022-11-18T00:00:50;2.00;99.90
2112;DHT22;1062;52.538;13.400;2022-11-18T00:03:16;2.00;99.90
2112;DHT22;1062;52.538;13.400;2022-11-18T00:05:42;1.90;99.90
2112;DHT22;1062;52.538;13.400;2022-11-18T00:08:07;1.90;99.90
2112;DHT22;1062;52.538;13.400;2022-11-18T00:10:36;1.80;99.90
2112;DHT22;1062;52.538;13.400;2022-11-18T00:13:02;1.80;99.90
2112;DHT22;1062;52.538;13.400;2022-11-18T00:15:46;1.80;99.90
2112;DHT22;1062;52.538;13.400;2022-11-18T00:18:12;1.80;99.90
2112;DHT22;1062;52.538;13.400;2022-11-18T00:20:37;1.80;99.90
2112;DHT22;1062;52.538;13.400;2022-11-18T00:23:03;1.80;99.90
2112;DHT22;1062;52.538;13.400;2022-11-18T00:25:29;1.80;99.90
2112;DHT22;1062;52.538;13.400;2022-11-18T00:27:55;1.80;99.90
2112;DHT22;1062;52.538;13.400;2022-11-18T00:30:21;1.80;99.90
2112;DHT22;1062;52.538;13.400;2022-11-18T00:32:46;1.80;99.90
2112;DHT22;1062;52.538;13.400;2022-11-18T00:35:12;1.80;99.90
2112;DHT22;1062;52.538;13.400;2022-11-18T00:37:37;1.80;99.90
2112;DHT22;1062;52.538;13.400;2022-11-18T00:40:03;1.80;99.90
2112;DHT22;1062;52.538;13.400;2022-11-18T00:42:29;1.80;99.90
2112;DHT22;1062;52.538;13.400;2022-11-18T00:45:13;1.80;99.90
2112;DHT22;1062;52.538;13.400;2022-11-18T00:47:39;1.80;99.90
2112;DHT22;1062;52.538;13.400;2022-11-18T00:50:05;1.90;99.90
2112;DHT22;1062;52.538;13.400;2022-11-18T00:52:30;1.90;99.90
2112;DHT22;1062;52.538;13.400;2022-11-18T00:54:56;1.90;99.90
2112;DHT22;1062;52.538;13.400;2022-11-18T00:57:22;1.80;99.90
2112;DHT22;1062;52.538;13.400;2022-11-18T00:59:47;1.70;99.90
2112;DHT22;1062;52.538;13.400;2022-11-18T01:02:13;1.70;99.90
2112;DHT22;1062;52.538;13.400;2022-11-18T01:04:38;1.70;99.90
2112;DHT22;1062;52.538;13.400;2022-11-18T01:07:04;1.70;99.90
2112;DHT22;1062;52.538;13.400;2022-11-18T01:09:30;1.60;99.90
2112;DHT22;1062;52.538;13.400;2022-11-18T01:11:55;1.60;99.90
2112;DHT22;1062;52.538;13.400;2022-11-18T01:14:39;1.50;99.90
2112;DHT22;1062;52.538;13.400;2022-11-18T01:17:05;1.60;99.90
2112;DHT22;1062;52.538;13.400;2022-11-18T01:19:30;1.60;99.90
2112;DHT22;1062;52.538;13.400;2022-11-18T01:21:56;1.50;99.90
2112;DHT22;1062;52.538;13.400;2022-11-18T01:24:27;1.40;99.90
2112;DHT22;1062;52.538;13.400;2022-11-18T01:26:53;1.40;99.90
2112;DHT22;1062;52.538;13.400;2022-11-18T01:29:19;1.40;99.90
2112;DHT22;1062;52.538;13.400;2022-11-18T01:31:44;1.40;99.90
2112;DHT22;1062;52.538;13.400;2022-11-18T01:34:10;1.30;99.90
2112;DHT22;1062;52.538;13.400;2022-11-18T01:36:36;1.30;99.90
2112;DHT22;1062;52.538;13.400;2022-11-18T01:39:01;1.30;99.90
2112;DHT22;1062;52.538;13.400;2022-11-18T01:41:27;1.30;99.90
2112;DHT22;1062;52.538;13.400;2022-11-18T01:43:57;1.30;99.90
2112;DHT22;1062;52.538;13.400;2022-11-18T01:46:26;1.30;99.90
2112;DHT22;1062;52.538;13.400;2022-11-18T01:48:56;1.30;99.90
2112;DHT22;1062;52.538;13.400;2022-11-18T01:51:32;1.30;99.90
2112;DHT22;1062;52.538;13.400;2022-11-18T01:54:04;1.30;99.90
2112;DHT22;1062;52.538;13.400;2022-11-18T01:56:37;1.30;99.90
2112;DHT22;1062;52.538;13.400;2022-11-18T01:59:19;1.40;99.90
2112;DHT22;1062;52.538;13.400;2022-11-18T02:01:46;1.30;99.90
2112;DHT22;1062;52.538;13.400;2022-11-18T02:04:13;1.30;99.90
2112;DHT22;1062;52.538;13.400;2022-11-18T02:06:41;1.30;99.90
2112;DHT22;1062;52.538;13.400;2022-11-18T02:09:08;1.30;99.90
2112;DHT22;1062;52.538;13.400;2022-11-18T02:11:33;1.30;99.90
2112;DHT22;1062;52.538;13.400;2022-11-18T02:14:27;1.30;99.90
2112;DHT22;1062;52.538;13.400;2022-11-18T02:33:39;1.30;99.90
2112;DHT22;1062;52.538;13.400;2022-11-18T02:36:17;1.30;99.90
2112;DHT22;1062;52.538;13.400;2022-11-18T02:38:49;1.30;99.90
2112;DHT22;1062;52.538;13.400;2022-11-18T02:41:20;1.30;99.90
2112;DHT22;1062;52.538;13.400;2022-11-18T02:43:52;1.30;99.90
2112;DHT22;1062;52.538;13.400;2022-11-18T02:46:38;1.20;99.90
2112;DHT22;1062;52.538;13.400;2022-11-18T02:49:13;1.20;99.90
2112;DHT22;1062;52.538;13.400;2022-11-18T02:51:42;1.20;99.90
2112;DHT22;1062;52.538;13.400;2022-11-18T02:54:11;1.20;99.90
2112;DHT22;1062;52.538;13.400;2022-11-18T02:56:38;1.20;99.90
2112;DHT22;1062;52.538;13.400;2022-11-18T02:59:04;1.10;99.90
2112;DHT22;1062;52.538;13.400;2022-11-18T03:01:32;1.10;99.90
2112;DHT22;1062;52.538;13.400;2022-11-18T03:03:58;1.10;99.90
2112;DHT22;1062;52.538;13.400;2022-11-18T03:06:40;1.10;99.90
2112;DHT22;1062;52.538;13.400;2022-11-18T03:09:23;1.10;99.90
2112;DHT22;1062;52.538;13.400;2022-11-18T03:12:17;1.10;99.90
2112;DHT22;1062;52.538;13.400;2022-11-18T03:15:09;1.00;99.90
2112;DHT22;1062;52.538;13.400;2022-11-18T03:28:45;0.90;99.90
2112;DHT22;1062;52.538;13.400;2022-11-18T03:31:22;0.90;99.90
2112;DHT22;1062;52.538;13.400;2022-11-18T03:33:56;0.80;99.90
2112;DHT22;1062;52.538;13.400;2022-11-18T03:36:27;0.80;99.90
2112;DHT22;1062;52.538;13.400;2022-11-18T03:38:56;0.80;99.90
2112;DHT22;1062;52.538;13.400;2022-11-18T03:41:24;0.80;99.90
2112;DHT22;1062;52.538;13.400;2022-11-18T03:43:57;0.70;99.90
2112;DHT22;1062;52.538;13.400;2022-11-18T03:46:30;0.70;99.90
2112;DHT22;1062;52.538;13.400;2022-11-18T03:48:59;0.70;99.90
2112;DHT22;1062;52.538;13.400;2022-11-18T03:51:30;0.70;99.90
2112;DHT22;1062;52.538;13.400;2022-11-18T03:54:06;0.70;99.90
2112;DHT22;1062;52.538;13.400;2022-11-18T03:56:38;0.70;99.90
2112;DHT22;1062;52.538;13.400;2022-11-18T03:59:09;0.70;99.90
2112;DHT22;1062;52.538;13.400;2022-11-18T04:04:14;0.60;99.90
2112;DHT22;1062;52.538;13.400;2022-11-18T04:09:27;0.60;99.90
2112;DHT22;1062;52.538;13.400;2022-11-18T04:11:58;0.60;99.90
2112;DHT22;1062;52.538;13.400;2022-11-18T04:14:47;0.50;99.90
2112;DHT22;1062;52.538;13.400;2022-11-18T04:17:19;0.40;99.90
2112;DHT22;1062;52.538;13.400;2022-11-18T04:19:46;0.40;99.90
2112;DHT22;1062;52.538;13.400;2022-11-18T04:22:12;0.30;99.90
2112;DHT22;1062;52.538;13.400;2022-11-18T04:24:38;0.30;99.90
2112;DHT22;1062;52.538;13.400;2022-11-18T04:27:04;0.30;99.90
2112;DHT22;1062;52.538;13.400;2022-11-18T04:29:31;0.20;99.90
2112;DHT22;1062;52.538;13.400;2022-11-18T04:31:58;0.20;99.90
2112;DHT22;1062;52.538;13.400;2022-11-18T04:34:24;0.20;99.90
2112;DHT22;1062;52.538;13.400;2022-11-18T04:36:49;0.20;99.90
2112;DHT22;1062;52.538;13.400;2022-11-18T04:39:15;0.30;99.90
2112;DHT22;1062;52.538;13.400;2022-11-18T04:41:43;0.20;99.90
2112;DHT22;1062;52.538;13.400;2022-11-18T04:44:28;0.20;99.90
2112;DHT22;1062;52.538;13.400;2022-11-18T04:46:55;0.20;99.90
2112;DHT22;1062;52.538;13.400;2022-11-18T04:49:22;0.20;99.90
2112;DHT22;1062;52.538;13.400;2022-11-18T04:51:48;0.10;99.90
2112;DHT22;1062;52.538;13.400;2022-11-18T04:54:14;0.10;99.90
2112;DHT22;1062;52.538;13.400;2022-11-18T04:56:41;0.10;99.90
2112;DHT22;1062;52.538;13.400;2022-11-18T04:59:08;0.10;99.90
2112;DHT22;1062;52.538;13.400;2022-11-18T05:01:33;0.20;99.90
2112;DHT22;1062;52.538;13.400;2022-11-18T05:04:00;0.10;99.90
2112;DHT22;1062;52.538;13.400;2022-11-18T05:06:26;0.10;99.90
2112;DHT22;1062;52.538;13.400;2022-11-18T05:08:52;0.20;99.90
2112;DHT22;1062;52.538;13.400;2022-11-18T05:11:18;0.10;99.90
2112;DHT22;1062;52.538;13.400;2022-11-18T05:14:02;0.10;99.90
2112;DHT22;1062;52.538;13.400;2022-11-18T05:16:28;0.00;99.90
2112;DHT22;1062;52.538;13.400;2022-11-18T05:18:53;0.10;99.90
2112;DHT22;1062;52.538;13.400;2022-11-18T05:21:19;0.10;99.90
2112;DHT22;1062;52.538;13.400;2022-11-18T05:23:44;0.10;99.90
2112;DHT22;1062;52.538;13.400;2022-11-18T05:26:10;0.10;99.90
2112;DHT22;1062;52.538;13.400;2022-11-18T05:28:36;0.10;99.90
2112;DHT22;1062;52.538;13.400;2022-11-18T05:31:07;0.10;99.90
2112;DHT22;1062;52.538;13.400;2022-11-18T05:33:32;0.20;99.90
2112;DHT22;1062;52.538;13.400;2022-11-18T05:36:02;0.20;99.90
2112;DHT22;1062;52.538;13.400;2022-11-18T05:38:28;0.10;99.90
2112;DHT22;1062;52.538;13.400;2022-11-18T05:40:54;0.20;99.90
2112;DHT22;1062;52.538;13.400;2022-11-18T05:43:19;0.20;99.90
2112;DHT22;1062;52.538;13.400;2022-11-18T05:45:45;0.20;99.90
2112;DHT22;1062;52.538;13.400;2022-11-18T05:48:11;0.20;99.90
2112;DHT22;1062;52.538;13.400;2022-11-18T05:50:37;0.20;99.90
2112;DHT22;1062;52.538;13.400;2022-11-18T05:53:03;0.20;99.90
2112;DHT22;1062;52.538;13.400;2022-11-18T05:55:38;0.20;99.90
2112;DHT22;1062;52.538;13.400;2022-11-18T05:58:04;0.30;99.90
2112;DHT22;1062;52.538;13.400;2022-11-18T06:00:31;0.20;99.90
2112;DHT22;1062;52.538;13.400;2022-11-18T06:02:58;0.20;99.90
2112;DHT22;1062;52.538;13.400;2022-11-18T06:05:25;0.20;99.90
2112;DHT22;1062;52.538;13.400;2022-11-18T06:07:53;0.20;99.90
2112;DHT22;1062;52.538;13.400;2022-11-18T06:10:23;0.20;99.90
2112;DHT22;1062;52.538;13.400;2022-11-18T06:12:52;0.20;99.90
2112;DHT22;1062;52.538;13.400;2022-11-18T06:15:30;0.10;99.90
2112;DHT22;1062;52.538;13.400;2022-11-18T06:18:03;0.10;99.90
2112;DHT22;1062;52.538;13.400;2022-11-18T06:20:33;0.10;99.90
2112;DHT22;1062;52.538;13.400;2022-11-18T06:23:00;0.10;99.90
2112;DHT22;1062;52.538;13.400;2022-11-18T06:25:27;0.20;99.90
2112;DHT22;1062;52.538;13.400;2022-11-18T06:27:55;0.10;99.90
2112;DHT22;1062;52.538;13.400;2022-11-18T06:30:22;0.10;99.90
2112;DHT22;1062;52.538;13.400;2022-11-18T06:32:47;0.20;99.90
2112;DHT22;1062;52.538;13.400;2022-11-18T06:35:13;0.10;99.90
2112;DHT22;1062;52.538;13.400;2022-11-18T06:37:39;0.10;99.90
2112;DHT22;1062;52.538;13.400;2022-11-18T06:40:05;0.10;99.90
2112;DHT22;1062;52.538;13.400;2022-11-18T06:42:31;0.10;99.90
2112;DHT22;1062;52.538;13.400;2022-11-18T06:45:15;0.00;99.90
2112;DHT22;1062;52.538;13.400;2022-11-18T06:47:41;0.10;99.90
2112;DHT22;1062;52.538;13.400;2022-11-18T06:50:06;0.10;99.90
2112;DHT22;1062;52.538;13.400;2022-11-18T06:52:32;0.10;99.90
2112;DHT22;1062;52.538;13.400;2022-11-18T06:54:58;0.10;99.90
2112;DHT22;1062;52.538;13.400;2022-11-18T06:57:23;0.10;99.90
2112;DHT22;1062;52.538;13.400;2022-11-18T06:59:49;0.00;99.90
2112;DHT22;1062;52.538;13.400;2022-11-18T07:02:15;0.10;99.90
2112;DHT22;1062;52.538;13.400;2022-11-18T07:04:46;0.10;99.90
2112;DHT22;1062;52.538;13.400;2022-11-18T07:07:11;0.00;99.90
2112;DHT22;1062;52.538;13.400;2022-11-18T07:09:37;0.00;99.90
2112;DHT22;1062;52.538;13.400;2022-11-18T07:12:03;0.00;99.90
2112;DHT22;1062;52.538;13.400;2022-11-18T07:14:29;0.00;99.90
2112;DHT22;1062;52.538;13.400;2022-11-18T07:16:54;0.00;99.90
2112;DHT22;1062;52.538;13.400;2022-11-18T07:19:20;0.00;99.90
2112;DHT22;1062;52.538;13.400;2022-11-18T07:21:46;0.00;99.90
2112;DHT22;1062;52.538;13.400;2022-11-18T07:24:13;0.00;99.90
2112;DHT22;1062;52.538;13.400;2022-11-18T07:26:39;0.00;99.90
2112;DHT22;1062;52.538;13.400;2022-11-18T07:29:05;0.00;99.90
2112;DHT22;1062;52.538;13.400;2022-11-18T07:31:31;0.10;99.90
2112;DHT22;1062;52.538;13.400;2022-11-18T07:33:58;0.00;99.90
2112;DHT22;1062;52.538;13.400;2022-11-18T07:36:28;0.00;99.90
2112;DHT22;1062;52.538;13.400;2022-11-18T07:38:54;0.00;99.90
2112;DHT22;1062;52.538;13.400;2022-11-18T07:41:22;0.00;99.90
2112;DHT22;1062;52.538;13.400;2022-11-18T07:43:49;0.00;99.90
2112;DHT22;1062;52.538;13.400;2022-11-18T07:46:18;0.00;99.90
2112;DHT22;1062;52.538;13.400;2022-11-18T07:48:45;0.10;99.90
2112;DHT22;1062;52.538;13.400;2022-11-18T07:51:11;0.00;99.90
2112;DHT22;1062;52.538;13.400;2022-11-18T07:53:37;0.10;99.90
2112;DHT22;1062;52.538;13.400;2022-11-18T07:56:04;0.10;99.90
2112;DHT22;1062;52.538;13.400;2022-11-18T07:58:29;0.10;99.90
2112;DHT22;1062;52.538;13.400;2022-11-18T08:00:55;0.10;99.90
2112;DHT22;1062;52.538;13.400;2022-11-18T08:03:25;0.10;99.90
2112;DHT22;1062;52.538;13.400;2022-11-18T08:05:51;0.10;99.90
2112;DHT22;1062;52.538;13.400;2022-11-18T08:08:16;0.10;99.90
2112;DHT22;1062;52.538;13.400;2022-11-18T08:10:42;0.10;99.90
2112;DHT22;1062;52.538;13.400;2022-11-18T08:13:08;0.10;99.90
2112;DHT22;1062;52.538;13.400;2022-11-18T08:15:33;0.20;99.90
2112;DHT22;1062;52.538;13.400;2022-11-18T08:17:59;0.10;99.90
2112;DHT22;1062;52.538;13.400;2022-11-18T08:20:24;0.10;99.90
2112;DHT22;1062;52.538;13.400;2022-11-18T08:22:52;0.00;99.90
2112;DHT22;1062;52.538;13.400;2022-11-18T08:25:17;0.00;99.90
2112;DHT22;1062;52.538;13.400;2022-11-18T08:27:43;0.00;99.90
2112;DHT22;1062;52.538;13.400;2022-11-18T08:30:09;0.00;99.90
2112;DHT22;1062;52.538;13.400;2022-11-18T08:32:35;0.10;99.90
2112;DHT22;1062;52.538;13.400;2022-11-18T08:35:00;0.10;99.90
2112;DHT22;1062;52.538;13.400;2022-11-18T08:37:26;0.10;99.90
2112;DHT22;1062;52.538;13.400;2022-11-18T08:39:52;0.10;99.90
2112;DHT22;1062;52.538;13.400;2022-11-18T08:42:17;0.00;99.90
2112;DHT22;1062;52.538;13.400;2022-11-18T08:44:47;0.00;99.90
2112;DHT22;1062;52.538;13.400;2022-11-18T08:47:13;0.00;99.90
2112;DHT22;1062;52.538;13.400;2022-11-18T08:49:38;-0.10;99.90
2112;DHT22;1062;52.538;13.400;2022-11-18T08:52:04;-0.20;99.90
2112;DHT22;1062;52.538;13.400;2022-11-18T08:54:29;-0.20;99.90
2112;DHT22;1062;52.538;13.400;2022-11-18T08:56:56;-0.30;99.90
2112;DHT22;1062;52.538;13.400;2022-11-18T08:59:21;-0.30;99.90
2112;DHT22;1062;52.538;13.400;2022-11-18T09:01:47;-0.30;99.90
2112;DHT22;1062;52.538;13.400;2022-11-18T09:04:13;-0.30;99.90
2112;DHT22;1062;52.538;13.400;2022-11-18T09:06:38;-0.30;99.90
2112;DHT22;1062;52.538;13.400;2022-11-18T09:09:05;-0.30;99.90
2112;DHT22;1062;52.538;13.400;2022-11-18T09:11:31;-0.30;99.90
2112;DHT22;1062;52.538;13.400;2022-11-18T09:13:58;-0.30;99.90
2112;DHT22;1062;52.538;13.400;2022-11-18T09:16:25;-0.30;99.90
2112;DHT22;1062;52.538;13.400;2022-11-18T09:18:51;-0.30;99.90
2112;DHT22;1062;52.538;13.400;2022-11-18T09:21:17;-0.30;99.90
2112;DHT22;1062;52.538;13.400;2022-11-18T09:23:43;-0.30;99.90
2112;DHT22;1062;52.538;13.400;2022-11-18T09:26:10;-0.30;99.90
2112;DHT22;1062;52.538;13.400;2022-11-18T09:28:37;-0.20;99.90
2112;DHT22;1062;52.538;13.400;2022-11-18T09:31:07;-0.30;99.90
2112;DHT22;1062;52.538;13.400;2022-11-18T09:33:34;-0.20;99.90
2112;DHT22;1062;52.538;13.400;2022-11-18T09:36:00;-0.20;99.90
2112;DHT22;1062;52.538;13.400;2022-11-18T09:38:28;-0.20;99.90
2112;DHT22;1062;52.538;13.400;2022-11-18T09:46:32;-0.10;99.90
2112;DHT22;1062;52.538;13.400;2022-11-18T09:49:10;-0.10;99.90
2112;DHT22;1062;52.538;13.400;2022-11-18T09:51:40;-0.20;99.90
2112;DHT22;1062;52.538;13.400;2022-11-18T09:54:10;-0.20;99.90
2112;DHT22;1062;52.538;13.400;2022-11-18T09:56:38;-0.20;99.90
2112;DHT22;1062;52.538;13.400;2022-11-18T09:59:05;-0.10;99.90
2112;DHT22;1062;52.538;13.400;2022-11-18T10:01:30;-0.10;99.90
2112;DHT22;1062;52.538;13.400;2022-11-18T10:03:56;-0.20;99.90
2112;DHT22;1062;52.538;13.400;2022-11-18T10:06:25;-0.10;99.90
2112;DHT22;1062;52.538;13.400;2022-11-18T10:09:14;-0.10;99.90
2112;DHT22;1062;52.538;13.400;2022-11-18T10:15:00;-0.10;99.90
2112;DHT22;1062;52.538;13.400;2022-11-18T10:23:20;0.00;99.90
2112;DHT22;1062;52.538;13.400;2022-11-18T10:25:47;0.00;99.90
2112;DHT22;1062;52.538;13.400;2022-11-18T10:28:22;0.00;99.90
2112;DHT22;1062;52.538;13.400;2022-11-18T10:30:48;0.10;99.90
2112;DHT22;1062;52.538;13.400;2022-11-18T10:35:45;0.00;99.90
2112;DHT22;1062;52.538;13.400;2022-11-18T10:38:18;0.00;99.90
2112;DHT22;1062;52.538;13.400;2022-11-18T10:41:03;-0.10;99.90
2112;DHT22;1062;52.538;13.400;2022-11-18T10:43:55;0.00;99.90
2112;DHT22;1062;52.538;13.400;2022-11-18T10:49:14;0.10;99.90
2112;DHT22;1062;52.538;13.400;2022-11-18T10:51:47;0.20;99.90
2112;DHT22;1062;52.538;13.400;2022-11-18T10:54:28;0.10;99.90
2112;DHT22;1062;52.538;13.400;2022-11-18T10:57:00;0.10;99.90
2112;DHT22;1062;52.538;13.400;2022-11-18T11:04:36;0.10;99.90
2112;DHT22;1062;52.538;13.400;2022-11-18T11:07:59;0.10;99.90
2112;DHT22;1062;52.538;13.400;2022-11-18T11:12:50;0.20;99.90
2112;DHT22;1062;52.538;13.400;2022-11-18T11:15:33;0.10;99.90
2112;DHT22;1062;52.538;13.400;2022-11-18T11:18:11;0.10;99.90
2112;DHT22;1062;52.538;13.400;2022-11-18T11:20:58;0.10;99.90
2112;DHT22;1062;52.538;13.400;2022-11-18T11:23:24;0.00;99.90
2112;DHT22;1062;52.538;13.400;2022-11-18T11:31:17;0.20;99.90
2112;DHT22;1062;52.538;13.400;2022-11-18T11:51:30;0.40;99.90
2112;DHT22;1062;52.538;13.400;2022-11-18T11:54:06;0.50;99.90
2112;DHT22;1062;52.538;13.400;2022-11-18T11:56:41;0.50;99.90
2112;DHT22;1062;52.538;13.400;2022-11-18T12:10:27;0.70;99.90
2112;DHT22;1062;52.538;13.400;2022-11-18T12:18:46;0.80;99.90
2112;DHT22;1062;52.538;13.400;2022-11-18T12:26:47;1.00;99.90
2112;DHT22;1062;52.538;13.400;2022-11-18T12:32:35;1.00;99.90
2112;DHT22;1062;52.538;13.400;2022-11-18T12:40:42;0.60;99.90
2112;DHT22;1062;52.538;13.400;2022-11-18T12:54:59;0.30;99.90
2112;DHT22;1062;52.538;13.400;2022-11-18T12:57:32;0.30;99.90
2112;DHT22;1062;52.538;13.400;2022-11-18T12:59:58;0.40;99.90
2112;DHT22;1062;52.538;13.400;2022-11-18T13:02:50;0.40;99.90
2112;DHT22;1062;52.538;13.400;2022-11-18T13:05:24;0.40;99.90
2112;DHT22;1062;52.538;13.400;2022-11-18T13:08:11;0.30;99.90
2112;DHT22;1062;52.538;13.400;2022-11-18T13:13:30;0.40;99.90
2112;DHT22;1062;52.538;13.400;2022-11-18T13:16:01;0.30;99.90
2112;DHT22;1062;52.538;13.400;2022-11-18T13:18:51;0.30;99.90
2112;DHT22;1062;52.538;13.400;2022-11-18T13:21:26;0.20;99.90
2112;DHT22;1062;52.538;13.400;2022-11-18T13:24:12;0.20;99.90
2112;DHT22;1062;52.538;13.400;2022-11-18T13:26:40;0.10;99.90
2112;DHT22;1062;52.538;13.400;2022-11-18T13:34:22;0.00;99.90
2112;DHT22;1062;52.538;13.400;2022-11-18T13:36:49;0.00;99.90
2112;DHT22;1062;52.538;13.400;2022-11-18T13:44:54;0.00;99.90
2112;DHT22;1062;52.538;13.400;2022-11-18T13:47:32;0.10;99.90
2112;DHT22;1062;52.538;13.400;2022-11-18T13:55:24;0.20;99.90
2112;DHT22;1062;52.538;13.400;2022-11-18T13:57:59;0.10;99.90
2112;DHT22;1062;52.538;13.400;2022-11-18T14:00:27;0.10;99.90
2112;DHT22;1062;52.538;13.400;2022-11-18T14:03:19;0.10;99.90
2112;DHT22;1062;52.538;13.400;2022-11-18T14:05:55;0.10;99.90
2112;DHT22;1062;52.538;13.400;2022-11-18T14:08:34;0.10;99.90
2112;DHT22;1062;52.538;13.400;2022-11-18T14:11:01;0.20;99.90
2112;DHT22;1062;52.538;13.400;2022-11-18T14:13:32;0.20;99.90
2112;DHT22;1062;52.538;13.400;2022-11-18T14:16:01;0.20;99.90
2112;DHT22;1062;52.538;13.400;2022-11-18T14:18:35;0.20;99.90
2112;DHT22;1062;52.538;13.400;2022-11-18T14:21:03;0.20;99.90
2112;DHT22;1062;52.538;13.400;2022-11-18T14:23:33;0.20;99.90
2112;DHT22;1062;52.538;13.400;2022-11-18T14:26:02;0.20;99.90
2112;DHT22;1062;52.538;13.400;2022-11-18T14:28:30;0.20;99.90
2112;DHT22;1062;52.538;13.400;2022-11-18T14:33:25;0.20;99.90
2112;DHT22;1062;52.538;13.400;2022-11-18T14:36:07;0.10;99.90
2112;DHT22;1062;52.538;13.400;2022-11-18T14:38:44;0.10;99.90
2112;DHT22;1062;52.538;13.400;2022-11-18T14:41:12;0.00;99.90
2112;DHT22;1062;52.538;13.400;2022-11-18T14:43:38;0.00;99.90
2112;DHT22;1062;52.538;13.400;2022-11-18T14:46:13;0.00;99.90
2112;DHT22;1062;52.538;13.400;2022-11-18T14:48:40;-0.10;99.90
2112;DHT22;1062;52.538;13.400;2022-11-18T14:51:06;-0.10;99.90
2112;DHT22;1062;52.538;13.400;2022-11-18T14:53:31;-0.20;99.90
2112;DHT22;1062;52.538;13.400;2022-11-18T14:55:58;-0.20;99.90
2112;DHT22;1062;52.538;13.400;2022-11-18T14:58:24;-0.20;99.90
2112;DHT22;1062;52.538;13.400;2022-11-18T15:00:50;-0.20;99.90
2112;DHT22;1062;52.538;13.400;2022-11-18T15:03:16;-0.30;99.90
2112;DHT22;1062;52.538;13.400;2022-11-18T15:05:41;-0.30;99.90
2112;DHT22;1062;52.538;13.400;2022-11-18T15:08:07;-0.30;99.90
2112;DHT22;1062;52.538;13.400;2022-11-18T15:10:33;-0.30;99.90
2112;DHT22;1062;52.538;13.400;2022-11-18T15:12:59;-0.40;99.90
2112;DHT22;1062;52.538;13.400;2022-11-18T15:15:24;-0.40;99.90
2112;DHT22;1062;52.538;13.400;2022-11-18T15:17:50;-0.40;99.90
2112;DHT22;1062;52.538;13.400;2022-11-18T15:20:18;-0.50;99.90
2112;DHT22;1062;52.538;13.400;2022-11-18T15:22:44;-0.50;99.90
2112;DHT22;1062;52.538;13.400;2022-11-18T15:25:09;-0.50;99.90
2112;DHT22;1062;52.538;13.400;2022-11-18T15:27:36;-0.60;99.90
2112;DHT22;1062;52.538;13.400;2022-11-18T15:30:02;-0.60;99.90
2112;DHT22;1062;52.538;13.400;2022-11-18T15:32:27;-0.60;99.90
2112;DHT22;1062;52.538;13.400;2022-11-18T15:34:53;-0.60;99.90
2112;DHT22;1062;52.538;13.400;2022-11-18T15:37:19;-0.60;99.90
2112;DHT22;1062;52.538;13.400;2022-11-18T15:39:45;-0.70;99.90
2112;DHT22;1062;52.538;13.400;2022-11-18T15:42:15;-0.70;99.90
2112;DHT22;1062;52.538;13.400;2022-11-18T15:44:41;-0.70;99.90
2112;DHT22;1062;52.538;13.400;2022-11-18T15:47:06;-0.70;99.90
2112;DHT22;1062;52.538;13.400;2022-11-18T15:49:32;-0.80;99.90
2112;DHT22;1062;52.538;13.400;2022-11-18T15:51:57;-0.80;99.90
2112;DHT22;1062;52.538;13.400;2022-11-18T15:54:23;-0.80;99.90
2112;DHT22;1062;52.538;13.400;2022-11-18T15:56:49;-0.80;99.90
2112;DHT22;1062;52.538;13.400;2022-11-18T15:59:15;-0.80;99.90
2112;DHT22;1062;52.538;13.400;2022-11-18T16:01:44;-0.80;99.90
2112;DHT22;1062;52.538;13.400;2022-11-18T16:04:13;-0.80;99.90
2112;DHT22;1062;52.538;13.400;2022-11-18T16:06:39;-0.90;99.90
2112;DHT22;1062;52.538;13.400;2022-11-18T16:09:07;-1.00;99.90
2112;DHT22;1062;52.538;13.400;2022-11-18T16:11:33;-0.90;99.90
2112;DHT22;1062;52.538;13.400;2022-11-18T16:14:18;-1.00;99.90
2112;DHT22;1062;52.538;13.400;2022-11-18T16:16:46;-1.00;99.90
2112;DHT22;1062;52.538;13.400;2022-11-18T16:19:14;-1.00;99.90
2112;DHT22;1062;52.538;13.400;2022-11-18T16:21:42;-1.00;99.90
2112;DHT22;1062;52.538;13.400;2022-11-18T16:24:11;-1.00;99.90
2112;DHT22;1062;52.538;13.400;2022-11-18T16:26:38;-1.00;99.90
2112;DHT22;1062;52.538;13.400;2022-11-18T16:29:04;-1.10;99.90
2112;DHT22;1062;52.538;13.400;2022-11-18T16:31:30;-1.10;99.90
2112;DHT22;1062;52.538;13.400;2022-11-18T16:36:38;-1.20;99.90
2112;DHT22;1062;52.538;13.400;2022-11-18T16:39:13;-1.10;99.90
2112;DHT22;1062;52.538;13.400;2022-11-18T16:41:39;-1.10;99.90
2112;DHT22;1062;52.538;13.400;2022-11-18T16:44:10;-1.20;99.90
2112;DHT22;1062;52.538;13.400;2022-11-18T16:46:38;-1.20;99.90
2112;DHT22;1062;52.538;13.400;2022-11-18T16:49:06;-1.30;99.90
2112;DHT22;1062;52.538;13.400;2022-11-18T16:51:35;-1.30;99.90
2112;DHT22;1062;52.538;13.400;2022-11-18T16:54:03;-1.30;99.90
2112;DHT22;1062;52.538;13.400;2022-11-18T16:56:31;-1.30;99.90
2112;DHT22;1062;52.538;13.400;2022-11-18T16:59:02;-1.40;99.90
2112;DHT22;1062;52.538;13.400;2022-11-18T17:01:28;-1.30;99.90
2112;DHT22;1062;52.538;13.400;2022-11-18T17:03:54;-1.30;99.90
2112;DHT22;1062;52.538;13.400;2022-11-18T17:06:22;-1.30;99.90
2112;DHT22;1062;52.538;13.400;2022-11-18T17:08:48;-1.40;99.90
2112;DHT22;1062;52.538;13.400;2022-11-18T17:11:14;-1.30;99.90
2112;DHT22;1062;52.538;13.400;2022-11-18T17:13:40;-1.40;99.90
2112;DHT22;1062;52.538;13.400;2022-11-18T17:16:15;-1.50;99.90
2112;DHT22;1062;52.538;13.400;2022-11-18T17:18:41;-1.50;99.90
2112;DHT22;1062;52.538;13.400;2022-11-18T17:21:12;-1.50;99.90
2112;DHT22;1062;52.538;13.400;2022-11-18T17:23:39;-1.50;99.90
2112;DHT22;1062;52.538;13.400;2022-11-18T17:26:06;-1.50;99.90
2112;DHT22;1062;52.538;13.400;2022-11-18T17:28:34;-1.60;99.90
2112;DHT22;1062;52.538;13.400;2022-11-18T17:31:13;-1.50;99.90
2112;DHT22;1062;52.538;13.400;2022-11-18T17:33:39;-1.50;99.90
2112;DHT22;1062;52.538;13.400;2022-11-18T17:36:06;-1.50;99.90
2112;DHT22;1062;52.538;13.400;2022-11-18T17:38:37;-1.50;99.90
2112;DHT22;1062;52.538;13.400;2022-11-18T17:41:04;-1.50;99.90
2112;DHT22;1062;52.538;13.400;2022-11-18T17:43:30;-1.50;99.90
2112;DHT22;1062;52.538;13.400;2022-11-18T17:45:57;-1.50;99.90
2112;DHT22;1062;52.538;13.400;2022-11-18T17:48:26;-1.50;99.90
2112;DHT22;1062;52.538;13.400;2022-11-18T17:50:51;-1.50;99.90
2112;DHT22;1062;52.538;13.400;2022-11-18T17:53:18;-1.60;99.90
2112;DHT22;1062;52.538;13.400;2022-11-18T17:55:44;-1.60;99.90
2112;DHT22;1062;52.538;13.400;2022-11-18T17:58:11;-1.60;99.90
2112;DHT22;1062;52.538;13.400;2022-11-18T18:00:37;-1.60;99.90
2112;DHT22;1062;52.538;13.400;2022-11-18T18:03:04;-1.60;99.90
2112;DHT22;1062;52.538;13.400;2022-11-18T18:05:30;-1.60;99.90
2112;DHT22;1062;52.538;13.400;2022-11-18T18:07:56;-1.60;99.90
2112;DHT22;1062;52.538;13.400;2022-11-18T18:10:23;-1.60;99.90
2112;DHT22;1062;52.538;13.400;2022-11-18T18:12:48;-1.60;99.90
2112;DHT22;1062;52.538;13.400;2022-11-18T18:15:33;-1.70;99.90
2112;DHT22;1062;52.538;13.400;2022-11-18T18:17:59;-1.70;99.90
2112;DHT22;1062;52.538;13.400;2022-11-18T18:20:24;-1.70;99.90
2112;DHT22;1062;52.538;13.400;2022-11-18T18:22:52;-1.70;99.90
2112;DHT22;1062;52.538;13.400;2022-11-18T18:25:17;-1.70;99.90
2112;DHT22;1062;52.538;13.400;2022-11-18T18:27:43;-1.70;99.90
2112;DHT22;1062;52.538;13.400;2022-11-18T18:30:09;-1.70;99.90
2112;DHT22;1062;52.538;13.400;2022-11-18T18:32:35;-1.70;99.90
2112;DHT22;1062;52.538;13.400;2022-11-18T18:35:00;-1.70;99.90
2112;DHT22;1062;52.538;13.400;2022-11-18T18:37:26;-1.70;99.90
2112;DHT22;1062;52.538;13.400;2022-11-18T18:39:52;-1.70;99.90